< < Back
Terminal Aerodrome Forecast


Current Version              Previous Versions:   1  2  3  4  5  6  7  8  9  

Terminal Aerodrome Forecast

515
FTUS44 KMOB 042320
TAFMOB
TAF
KMOB 042320Z 0500/0524 33003KT P6SM VCTS FEW017CB
      TEMPO 0500/0503 23020G30KT 2SM TSRA BKN035CB OVC070
     FM050300 19006KT P6SM VCTS SCT040CB BKN200
     FM050400 17005KT P6SM BKN250=

Latest METAR

791
SAUS80 KWBC 050400 CCA
MTRMOB
METAR KMOB 050356Z COR 16003KT 4SM BR FEW060 SCT200 23/22 A3011 RMK AO2
SLP193 T02280217


USA.gov is the U.S. government's official web portal to all federal, state and local government web resources and services.